Time;durP1;ratioP1;P1;durP2;ratioP2;P2;SDS_P1;SDS_P2;PMS_P1;PMS_P2;Temp;Humidity;BMP_temperature;BMP_pressure;BME280_temperature;BME280_humidity;BME280_pressure;Samples;Min_cycle;Max_cycle;Signal;HPM_P1;HPM_P2
2024/01/02 00:05:41;;;;;;;;;;;8.00;99.90;;;;;;6745010;88;20066;-79
2024/01/02 00:15:41;;;;;;;;;;;8.20;99.90;;;;;;6743665;88;20065;-79
2024/01/02 00:25:42;;;;;;;;;;;8.10;99.90;;;;;;6744200;88;20536;-79
2024/01/02 00:35:42;;;;;;;;;;;8.20;99.90;;;;;;6750273;88;20626;-80
2024/01/02 00:45:43;;;;;;;;;;;8.30;99.90;;;;;;6748776;88;20049;-78
2024/01/02 00:55:43;;;;;;;;;;;8.40;99.90;;;;;;6742635;88;20750;-80
2024/01/02 01:05:44;;;;;;;;;;;8.60;99.90;;;;;;6742246;88;20858;-78
2024/01/02 01:15:45;;;;;;;;;;;8.80;99.90;;;;;;6741665;88;20081;-79
2024/01/02 01:25:45;;;;;;;;;;;8.90;99.90;;;;;;6742018;88;20057;-78
2024/01/02 01:35:46;;;;;;;;;;;8.90;99.90;;;;;;6741799;88;20120;-80
2024/01/02 01:45:46;;;;;;;;;;;8.80;99.90;;;;;;6741887;88;20116;-79
2024/01/02 01:55:47;;;;;;;;;;;8.40;99.90;;;;;;6751760;88;20136;-80
2024/01/02 02:05:48;;;;;;;;;;;8.10;99.90;;;;;;6754611;88;20098;-81
2024/01/02 02:15:49;;;;;;;;;;;7.90;99.90;;;;;;6761413;88;20164;-82
2024/01/02 02:25:49;;;;;;;;;;;7.80;99.90;;;;;;6764700;88;21136;-81
2024/01/02 02:35:49;;;;;;;;;;;7.70;99.90;;;;;;6765276;88;20568;-81
2024/01/02 02:45:50;;;;;;;;;;;7.60;99.90;;;;;;6764539;88;20178;-82
2024/01/02 02:55:50;;;;;;;;;;;7.50;99.90;;;;;;6750188;88;20499;-80
2024/01/02 03:05:51;;;;;;;;;;;7.40;99.90;;;;;;6742329;76;20159;-76
2024/01/02 03:15:51;;;;;;;;;;;7.30;99.90;;;;;;6717550;88;20516;-76
2024/01/02 03:25:52;;;;;;;;;;;7.20;99.90;;;;;;6714881;88;20063;-76
2024/01/02 03:35:52;;;;;;;;;;;7.20;99.90;;;;;;6720648;88;20256;-76
2024/01/02 03:45:52;;;;;;;;;;;7.20;99.90;;;;;;6709981;88;20076;-76
2024/01/02 03:55:53;;;;;;;;;;;7.10;99.90;;;;;;6711781;88;20076;-75
2024/01/02 04:05:53;;;;;;;;;;;7.00;99.90;;;;;;6710855;88;20140;-75
2024/01/02 04:15:54;;;;;;;;;;;7.00;99.90;;;;;;6713764;88;20559;-75
2024/01/02 04:25:54;;;;;;;;;;;7.10;99.90;;;;;;6713644;88;20081;-75
2024/01/02 04:35:55;;;;;;;;;;;7.10;99.90;;;;;;6722946;88;20064;-75
2024/01/02 04:45:55;;;;;;;;;;;7.20;99.90;;;;;;6713238;88;20225;-75
2024/01/02 04:55:56;;;;;;;;;;;7.30;99.90;;;;;;6708706;88;20067;-75
2024/01/02 05:05:56;;;;;;;;;;;7.50;99.90;;;;;;6715668;88;20063;-75
2024/01/02 05:15:57;;;;;;;;;;;7.90;99.90;;;;;;6707117;88;20056;-75
2024/01/02 05:25:57;;;;;;;;;;;8.20;99.90;;;;;;6708572;88;20064;-75
2024/01/02 05:35:58;;;;;;;;;;;8.80;99.90;;;;;;6711153;88;20127;-75
2024/01/02 05:45:58;;;;;;;;;;;9.00;99.90;;;;;;6712928;88;20107;-75
2024/01/02 05:55:59;;;;;;;;;;;9.00;99.90;;;;;;6708956;88;20092;-76
2024/01/02 06:05:59;;;;;;;;;;;9.20;99.90;;;;;;6710825;88;20070;-76
2024/01/02 06:16:00;;;;;;;;;;;9.50;99.90;;;;;;6721510;88;20366;-75
2024/01/02 06:26:01;;;;;;;;;;;9.90;99.90;;;;;;6710833;88;20071;-75
2024/01/02 06:36:02;;;;;;;;;;;10.10;99.90;;;;;;6712773;88;20479;-75
2024/01/02 06:46:02;;;;;;;;;;;10.20;99.90;;;;;;6709026;88;20534;-75
2024/01/02 06:56:03;;;;;;;;;;;10.40;99.90;;;;;;6711442;88;20047;-76
2024/01/02 07:06:03;;;;;;;;;;;10.60;99.90;;;;;;6717225;88;20179;-75
2024/01/02 07:16:04;;;;;;;;;;;10.80;99.90;;;;;;6712688;88;20521;-75
2024/01/02 07:26:04;;;;;;;;;;;11.10;99.90;;;;;;6707258;88;20192;-75
2024/01/02 07:36:06;;;;;;;;;;;11.00;99.90;;;;;;6708346;88;20617;-75
2024/01/02 07:46:06;;;;;;;;;;;11.10;99.90;;;;;;6709349;88;20059;-75
2024/01/02 07:56:07;;;;;;;;;;;11.20;99.90;;;;;;6723415;88;20067;-75
2024/01/02 08:06:07;;;;;;;;;;;11.30;99.90;;;;;;6707677;88;20075;-74
2024/01/02 08:16:08;;;;;;;;;;;11.40;99.90;;;;;;6711775;88;20254;-75
2024/01/02 08:26:15;;;;;;;;;;;11.50;99.90;;;;;;6715419;88;20047;-75
2024/01/02 08:36:16;;;;;;;;;;;11.60;99.90;;;;;;6709108;88;20058;-75
2024/01/02 08:46:17;;;;;;;;;;;11.80;99.90;;;;;;6715727;88;20132;-75
2024/01/02 08:56:17;;;;;;;;;;;11.80;99.90;;;;;;6714766;88;20059;-74
2024/01/02 09:17:19;;;;;;;;;;;11.70;99.90;;;;;;6785181;87;20165;-78
2024/01/02 09:27:22;;;;;;;;;;;11.70;99.90;;;;;;6766073;87;20058;-77
2024/01/02 09:37:23;;;;;;;;;;;12.00;99.90;;;;;;6763117;87;20061;-77
2024/01/02 09:47:37;;;;;;;;;;;12.00;99.90;;;;;;6762638;87;20092;-78
2024/01/02 09:57:49;;;;;;;;;;;12.10;99.90;;;;;;6740300;87;20078;-79
2024/01/02 10:07:59;;;;;;;;;;;12.10;99.90;;;;;;6744975;87;20079;-79
2024/01/02 10:18:03;;;;;;;;;;;12.00;99.90;;;;;;6762639;87;20117;-79
2024/01/02 10:28:13;;;;;;;;;;;12.00;99.90;;;;;;6774020;87;20084;-79
2024/01/02 10:38:27;;;;;;;;;;;11.80;99.90;;;;;;6777839;87;20026;-78
2024/01/02 10:48:43;;;;;;;;;;;11.70;99.90;;;;;;6779464;87;20036;-78
2024/01/02 10:58:52;;;;;;;;;;;11.60;99.90;;;;;;6780858;87;20113;-79
2024/01/02 11:09:11;;;;;;;;;;;11.40;99.90;;;;;;6785873;87;20115;-79
2024/01/02 11:19:14;;;;;;;;;;;10.90;99.90;;;;;;6775898;87;20274;-82
2024/01/02 11:29:18;;;;;;;;;;;10.60;99.90;;;;;;6782568;87;20072;-79
2024/01/02 11:39:25;;;;;;;;;;;10.60;99.90;;;;;;6780943;87;20849;-81
2024/01/02 11:49:28;;;;;;;;;;;10.50;99.90;;;;;;6779459;87;20038;-80
2024/01/02 11:59:42;;;;;;;;;;;10.30;99.90;;;;;;6782181;87;20224;-79
2024/01/02 12:09:43;;;;;;;;;;;10.40;99.90;;;;;;6768274;88;20070;-80
2024/01/02 12:19:46;;;;;;;;;;;10.20;99.90;;;;;;6755765;88;20590;-81
2024/01/02 12:29:50;;;;;;;;;;;10.20;99.90;;;;;;6753480;88;20079;-81
2024/01/02 12:39:52;;;;;;;;;;;10.10;99.90;;;;;;6750805;88;20067;-81
2024/01/02 12:50:02;;;;;;;;;;;10.00;99.90;;;;;;6752144;88;20111;-80
2024/01/02 13:00:05;;;;;;;;;;;10.00;99.90;;;;;;6749676;88;20114;-81
2024/01/02 13:10:09;;;;;;;;;;;10.00;99.90;;;;;;6750541;88;20130;-81
2024/01/02 13:20:10;;;;;;;;;;;9.80;99.90;;;;;;6751871;88;20050;-80
2024/01/02 13:30:11;;;;;;;;;;;10.00;99.90;;;;;;6760435;88;20056;-81
2024/01/02 13:40:21;;;;;;;;;;;9.90;99.90;;;;;;6761436;88;20049;-81
2024/01/02 13:50:32;;;;;;;;;;;9.80;99.90;;;;;;6747629;88;20182;-81
2024/01/02 14:00:33;;;;;;;;;;;9.90;99.90;;;;;;6752814;88;20076;-82
2024/01/02 14:10:38;;;;;;;;;;;9.90;99.90;;;;;;6761501;88;20058;-80
2024/01/02 14:20:46;;;;;;;;;;;9.90;99.90;;;;;;6765411;88;20545;-81
2024/01/02 14:30:58;;;;;;;;;;;10.00;99.90;;;;;;6753472;88;20053;-80
2024/01/02 14:41:17;;;;;;;;;;;10.10;99.90;;;;;;6750732;88;20116;-80
2024/01/02 14:51:25;;;;;;;;;;;10.10;99.90;;;;;;6761952;88;20026;-82
2024/01/02 15:01:48;;;;;;;;;;;10.10;99.90;;;;;;6769547;77;20807;-76
2024/01/02 15:11:49;;;;;;;;;;;10.30;99.90;;;;;;6728496;88;20043;-78
2024/01/02 15:22:02;;;;;;;;;;;10.40;99.90;;;;;;6725575;88;20526;-77
2024/01/02 15:32:06;;;;;;;;;;;10.40;99.90;;;;;;6722065;88;20109;-78
2024/01/02 15:42:14;;;;;;;;;;;10.30;99.90;;;;;;6720245;88;20578;-77
2024/01/02 15:52:17;;;;;;;;;;;10.20;99.90;;;;;;6722116;88;20479;-77
2024/01/02 16:02:18;;;;;;;;;;;10.30;99.90;;;;;;6718039;88;20618;-78
2024/01/02 16:12:29;;;;;;;;;;;10.30;99.90;;;;;;6722072;88;20387;-78
2024/01/02 16:22:39;;;;;;;;;;;10.50;99.90;;;;;;6723475;88;20055;-78
2024/01/02 16:32:48;;;;;;;;;;;10.60;99.90;;;;;;6716916;88;20125;-78
2024/01/02 16:42:49;;;;;;;;;;;10.60;99.90;;;;;;6717545;88;20095;-77
2024/01/02 16:52:49;;;;;;;;;;;10.40;99.90;;;;;;6718496;88;20108;-78
2024/01/02 17:02:52;;;;;;;;;;;10.50;99.90;;;;;;6719754;88;20066;-78
2024/01/02 17:12:53;;;;;;;;;;;10.50;99.90;;;;;;6718644;88;20132;-77
2024/01/02 17:22:54;;;;;;;;;;;10.40;99.90;;;;;;6718846;88;20069;-78
2024/01/02 17:32:54;;;;;;;;;;;10.60;99.90;;;;;;6711623;88;20547;-77
2024/01/02 17:42:55;;;;;;;;;;;10.40;99.90;;;;;;6716191;88;20059;-77
2024/01/02 17:52:57;;;;;;;;;;;10.60;99.90;;;;;;6713401;88;20528;-78
2024/01/02 18:03:00;;;;;;;;;;;10.80;99.90;;;;;;6716353;88;20142;-77
2024/01/02 18:13:05;;;;;;;;;;;11.00;99.90;;;;;;6720259;88;20095;-77
2024/01/02 18:23:07;;;;;;;;;;;11.00;99.90;;;;;;6715436;88;20366;-77
2024/01/02 18:33:29;;;;;;;;;;;11.40;99.90;;;;;;6715948;88;20101;-76
2024/01/02 18:43:35;;;;;;;;;;;11.30;99.90;;;;;;6714209;88;20063;-77
2024/01/02 18:53:44;;;;;;;;;;;11.20;99.90;;;;;;6721555;88;20267;-77
2024/01/02 19:03:45;;;;;;;;;;;11.30;99.90;;;;;;6719118;88;20070;-77
2024/01/02 19:13:45;;;;;;;;;;;11.70;99.90;;;;;;6723404;88;20194;-76
2024/01/02 19:23:46;;;;;;;;;;;11.70;99.90;;;;;;6721781;88;20150;-78
2024/01/02 19:33:48;;;;;;;;;;;11.50;99.90;;;;;;6720290;88;20105;-77
2024/01/02 19:43:48;;;;;;;;;;;11.60;99.90;;;;;;6715211;88;20067;-77
2024/01/02 19:53:49;;;;;;;;;;;11.50;99.90;;;;;;6716396;88;20099;-77
2024/01/02 20:03:50;;;;;;;;;;;11.70;99.90;;;;;;6717193;88;20110;-76
2024/01/02 20:13:50;;;;;;;;;;;11.90;99.90;;;;;;6720717;88;20077;-78
2024/01/02 20:23:54;;;;;;;;;;;12.00;99.90;;;;;;6716810;88;20530;-78
2024/01/02 20:33:55;;;;;;;;;;;12.10;99.90;;;;;;6717001;88;20079;-76
2024/01/02 20:43:59;;;;;;;;;;;12.10;99.90;;;;;;6725179;88;20569;-76
2024/01/02 20:53:59;;;;;;;;;;;12.20;99.90;;;;;;6714655;88;20494;-76
2024/01/02 21:04:04;;;;;;;;;;;11.90;99.90;;;;;;6717867;88;20062;-76
2024/01/02 21:14:05;;;;;;;;;;;12.20;99.90;;;;;;6716547;88;20080;-77
2024/01/02 21:24:07;;;;;;;;;;;12.30;99.90;;;;;;6716421;88;21074;-76
2024/01/02 21:34:09;;;;;;;;;;;12.20;99.90;;;;;;6724097;76;20212;-77
2024/01/02 21:44:15;;;;;;;;;;;11.90;99.90;;;;;;6722379;88;20087;-76
2024/01/02 21:54:34;;;;;;;;;;;10.90;99.90;;;;;;6726091;88;20537;-76
2024/01/02 22:04:34;;;;;;;;;;;10.30;99.90;;;;;;6726885;88;20612;-76
2024/01/02 22:14:37;;;;;;;;;;;10.20;99.90;;;;;;6736710;88;20109;-76
2024/01/02 22:24:44;;;;;;;;;;;10.30;99.90;;;;;;6730525;88;20066;-76
2024/01/02 22:34:44;;;;;;;;;;;10.40;99.90;;;;;;6720464;88;20252;-76
2024/01/02 22:44:45;;;;;;;;;;;10.60;99.90;;;;;;6722219;88;20115;-76
2024/01/02 22:54:45;;;;;;;;;;;10.70;99.90;;;;;;6726746;88;20062;-76
2024/01/02 23:04:46;;;;;;;;;;;10.70;99.90;;;;;;6726619;88;20090;-76
2024/01/02 23:14:47;;;;;;;;;;;11.10;99.90;;;;;;6724167;88;20942;-75
2024/01/02 23:24:47;;;;;;;;;;;11.10;99.90;;;;;;6725695;88;20247;-76
2024/01/02 23:34:51;;;;;;;;;;;11.10;99.90;;;;;;6730298;88;20063;-75
2024/01/02 23:44:51;;;;;;;;;;;11.40;99.90;;;;;;6721764;88;20183;-76
2024/01/02 23:54:53;;;;;;;;;;;11.30;99.90;;;;;;6722249;88;20165;-76
